Terminal Aerodrome Forecast
Issued by NWS

Home | Current Version | Previous Version | Text Only | Print | Product List | Glossary On
Versions: 1 2 3 4 5 6 7 8 9 10 11 12 13 14
000
FTUS42 KGSP 231733
TAFHKY
TAF
KHKY 231733Z 2318/2418 06004KT P6SM FEW050
     FM240900 VRB02KT 4SM BR FEW250
     FM241400 16003KT P6SM FEW050=

USA.gov is the U.S. government's official web portal to all federal, state and local government web resources and services.